sensor_id;sensor_type;location;lat;lon;timestamp;P1;durP1;ratioP1;P2;durP2;ratioP2
49536;SDS011;74893;30.696;104.058;2024-03-08T00:00:59;25.75;;;15.13;;
49536;SDS011;74893;30.696;104.058;2024-03-08T00:03:26;22.88;;;14.05;;
49536;SDS011;74893;30.696;104.058;2024-03-08T00:05:54;26.52;;;14.77;;
49536;SDS011;74893;30.696;104.058;2024-03-08T00:08:21;23.98;;;14.25;;
49536;SDS011;74893;30.696;104.058;2024-03-08T00:10:48;27.83;;;14.13;;
49536;SDS011;74893;30.696;104.058;2024-03-08T00:13:15;30.65;;;13.88;;
49536;SDS011;74893;30.696;104.058;2024-03-08T00:15:42;25.10;;;14.07;;
49536;SDS011;74893;30.696;104.058;2024-03-08T00:18:11;27.98;;;15.30;;
49536;SDS011;74893;30.696;104.058;2024-03-08T00:20:37;26.60;;;14.70;;
49536;SDS011;74893;30.696;104.058;2024-03-08T00:23:04;24.08;;;13.18;;
49536;SDS011;74893;30.696;104.058;2024-03-08T00:25:31;25.58;;;13.23;;
49536;SDS011;74893;30.696;104.058;2024-03-08T00:27:59;21.10;;;13.38;;
49536;SDS011;74893;30.696;104.058;2024-03-08T00:30:26;25.40;;;13.60;;
49536;SDS011;74893;30.696;104.058;2024-03-08T00:32:53;29.27;;;14.10;;
49536;SDS011;74893;30.696;104.058;2024-03-08T00:35:19;23.02;;;13.25;;
49536;SDS011;74893;30.696;104.058;2024-03-08T00:37:46;26.17;;;14.55;;
49536;SDS011;74893;30.696;104.058;2024-03-08T00:40:13;28.23;;;14.70;;
49536;SDS011;74893;30.696;104.058;2024-03-08T00:42:40;25.05;;;14.23;;
49536;SDS011;74893;30.696;104.058;2024-03-08T00:45:10;27.63;;;13.93;;
49536;SDS011;74893;30.696;104.058;2024-03-08T00:47:37;25.15;;;13.07;;
49536;SDS011;74893;30.696;104.058;2024-03-08T00:50:04;24.60;;;14.20;;
49536;SDS011;74893;30.696;104.058;2024-03-08T00:52:33;24.52;;;13.60;;
49536;SDS011;74893;30.696;104.058;2024-03-08T00:55:00;22.55;;;13.52;;
49536;SDS011;74893;30.696;104.058;2024-03-08T00:57:27;24.00;;;13.27;;
49536;SDS011;74893;30.696;104.058;2024-03-08T00:59:54;23.67;;;14.30;;
49536;SDS011;74893;30.696;104.058;2024-03-08T01:02:21;25.33;;;14.13;;
49536;SDS011;74893;30.696;104.058;2024-03-08T01:04:48;25.52;;;14.20;;
49536;SDS011;74893;30.696;104.058;2024-03-08T01:07:15;25.40;;;14.00;;
49536;SDS011;74893;30.696;104.058;2024-03-08T01:09:42;33.60;;;14.23;;
49536;SDS011;74893;30.696;104.058;2024-03-08T01:12:09;21.10;;;13.27;;
49536;SDS011;74893;30.696;104.058;2024-03-08T01:14:36;24.77;;;13.95;;
49536;SDS011;74893;30.696;104.058;2024-03-08T01:17:03;23.27;;;13.98;;
49536;SDS011;74893;30.696;104.058;2024-03-08T01:19:30;29.73;;;14.38;;
49536;SDS011;74893;30.696;104.058;2024-03-08T01:21:58;27.60;;;14.02;;
49536;SDS011;74893;30.696;104.058;2024-03-08T01:24:25;28.48;;;13.70;;
49536;SDS011;74893;30.696;104.058;2024-03-08T01:26:52;25.10;;;13.85;;
49536;SDS011;74893;30.696;104.058;2024-03-08T01:29:18;24.50;;;13.13;;
49536;SDS011;74893;30.696;104.058;2024-03-08T01:31:45;24.20;;;14.10;;
49536;SDS011;74893;30.696;104.058;2024-03-08T01:34:12;26.42;;;14.00;;
49536;SDS011;74893;30.696;104.058;2024-03-08T01:36:39;24.58;;;13.30;;
49536;SDS011;74893;30.696;104.058;2024-03-08T01:39:06;24.30;;;13.48;;
49536;SDS011;74893;30.696;104.058;2024-03-08T01:41:33;25.17;;;13.27;;
49536;SDS011;74893;30.696;104.058;2024-03-08T01:44:01;24.95;;;13.38;;
49536;SDS011;74893;30.696;104.058;2024-03-08T01:46:32;24.83;;;13.85;;
49536;SDS011;74893;30.696;104.058;2024-03-08T01:48:59;24.42;;;13.30;;
49536;SDS011;74893;30.696;104.058;2024-03-08T01:51:27;25.25;;;13.60;;
49536;SDS011;74893;30.696;104.058;2024-03-08T01:53:54;22.77;;;13.43;;
49536;SDS011;74893;30.696;104.058;2024-03-08T01:56:23;22.77;;;13.30;;
49536;SDS011;74893;30.696;104.058;2024-03-08T01:58:51;22.95;;;13.20;;
49536;SDS011;74893;30.696;104.058;2024-03-08T02:01:18;24.75;;;12.48;;
49536;SDS011;74893;30.696;104.058;2024-03-08T02:03:48;25.50;;;14.05;;
49536;SDS011;74893;30.696;104.058;2024-03-08T02:06:34;26.17;;;12.52;;
49536;SDS011;74893;30.696;104.058;2024-03-08T02:09:01;23.63;;;12.38;;
49536;SDS011;74893;30.696;104.058;2024-03-08T02:11:32;21.80;;;12.45;;
49536;SDS011;74893;30.696;104.058;2024-03-08T02:14:01;24.23;;;13.45;;
49536;SDS011;74893;30.696;104.058;2024-03-08T02:16:32;28.15;;;13.20;;
49536;SDS011;74893;30.696;104.058;2024-03-08T02:18:58;24.25;;;14.35;;
49536;SDS011;74893;30.696;104.058;2024-03-08T02:21:25;22.52;;;12.95;;
49536;SDS011;74893;30.696;104.058;2024-03-08T02:23:53;23.52;;;12.80;;
49536;SDS011;74893;30.696;104.058;2024-03-08T02:26:20;26.02;;;13.48;;
49536;SDS011;74893;30.696;104.058;2024-03-08T02:28:48;25.80;;;12.95;;
49536;SDS011;74893;30.696;104.058;2024-03-08T02:31:15;20.17;;;12.13;;
49536;SDS011;74893;30.696;104.058;2024-03-08T02:33:42;24.48;;;12.88;;
49536;SDS011;74893;30.696;104.058;2024-03-08T02:36:08;24.17;;;13.13;;
49536;SDS011;74893;30.696;104.058;2024-03-08T02:38:35;24.52;;;13.35;;
49536;SDS011;74893;30.696;104.058;2024-03-08T02:41:03;22.80;;;12.88;;
49536;SDS011;74893;30.696;104.058;2024-03-08T02:43:30;24.65;;;13.00;;
49536;SDS011;74893;30.696;104.058;2024-03-08T02:45:57;22.30;;;13.27;;
49536;SDS011;74893;30.696;104.058;2024-03-08T02:48:25;25.67;;;12.13;;
49536;SDS011;74893;30.696;104.058;2024-03-08T02:50:51;25.67;;;12.85;;
49536;SDS011;74893;30.696;104.058;2024-03-08T02:53:19;25.73;;;13.07;;
49536;SDS011;74893;30.696;104.058;2024-03-08T02:55:47;24.88;;;12.98;;
49536;SDS011;74893;30.696;104.058;2024-03-08T02:58:13;26.67;;;13.38;;
49536;SDS011;74893;30.696;104.058;2024-03-08T03:00:40;25.45;;;13.32;;
49536;SDS011;74893;30.696;104.058;2024-03-08T03:03:09;22.92;;;12.88;;
49536;SDS011;74893;30.696;104.058;2024-03-08T03:05:36;24.70;;;12.70;;
49536;SDS011;74893;30.696;104.058;2024-03-08T03:08:03;19.50;;;11.90;;
49536;SDS011;74893;30.696;104.058;2024-03-08T03:10:34;21.73;;;12.82;;
49536;SDS011;74893;30.696;104.058;2024-03-08T03:13:01;22.77;;;12.60;;
49536;SDS011;74893;30.696;104.058;2024-03-08T03:15:29;26.02;;;12.75;;
49536;SDS011;74893;30.696;104.058;2024-03-08T03:17:56;20.08;;;12.25;;
49536;SDS011;74893;30.696;104.058;2024-03-08T03:20:23;23.33;;;12.73;;
49536;SDS011;74893;30.696;104.058;2024-03-08T03:22:58;24.30;;;12.93;;
49536;SDS011;74893;30.696;104.058;2024-03-08T03:25:27;23.08;;;12.60;;
49536;SDS011;74893;30.696;104.058;2024-03-08T03:28:03;23.83;;;13.43;;
49536;SDS011;74893;30.696;104.058;2024-03-08T03:30:33;23.80;;;12.70;;
49536;SDS011;74893;30.696;104.058;2024-03-08T03:33:00;23.58;;;12.27;;
49536;SDS011;74893;30.696;104.058;2024-03-08T03:35:32;21.83;;;11.93;;
49536;SDS011;74893;30.696;104.058;2024-03-08T03:37:59;20.02;;;12.32;;
49536;SDS011;74893;30.696;104.058;2024-03-08T03:40:33;20.55;;;12.48;;
49536;SDS011;74893;30.696;104.058;2024-03-08T03:43:00;20.65;;;12.20;;
49536;SDS011;74893;30.696;104.058;2024-03-08T03:45:28;19.35;;;11.85;;
49536;SDS011;74893;30.696;104.058;2024-03-08T03:47:55;22.15;;;12.18;;
49536;SDS011;74893;30.696;104.058;2024-03-08T03:50:22;24.38;;;12.20;;
49536;SDS011;74893;30.696;104.058;2024-03-08T03:52:49;21.30;;;10.75;;
49536;SDS011;74893;30.696;104.058;2024-03-08T03:55:15;22.85;;;12.48;;
49536;SDS011;74893;30.696;104.058;2024-03-08T03:57:43;23.17;;;12.60;;
49536;SDS011;74893;30.696;104.058;2024-03-08T04:00:11;18.60;;;11.77;;
49536;SDS011;74893;30.696;104.058;2024-03-08T04:02:38;20.17;;;11.98;;
49536;SDS011;74893;30.696;104.058;2024-03-08T04:05:06;23.73;;;11.75;;
49536;SDS011;74893;30.696;104.058;2024-03-08T04:07:35;19.75;;;11.43;;
49536;SDS011;74893;30.696;104.058;2024-03-08T04:10:02;21.67;;;12.25;;
49536;SDS011;74893;30.696;104.058;2024-03-08T04:12:32;19.60;;;11.65;;
49536;SDS011;74893;30.696;104.058;2024-03-08T04:15:02;24.05;;;12.25;;
49536;SDS011;74893;30.696;104.058;2024-03-08T04:17:33;19.48;;;11.73;;
49536;SDS011;74893;30.696;104.058;2024-03-08T04:20:03;25.20;;;12.15;;
49536;SDS011;74893;30.696;104.058;2024-03-08T04:22:38;23.02;;;11.45;;
49536;SDS011;74893;30.696;104.058;2024-03-08T04:25:05;19.33;;;11.25;;
49536;SDS011;74893;30.696;104.058;2024-03-08T04:27:33;24.52;;;12.13;;
49536;SDS011;74893;30.696;104.058;2024-03-08T04:30:00;25.42;;;12.15;;
49536;SDS011;74893;30.696;104.058;2024-03-08T04:32:27;22.92;;;11.63;;
49536;SDS011;74893;30.696;104.058;2024-03-08T04:34:55;23.30;;;11.45;;
49536;SDS011;74893;30.696;104.058;2024-03-08T04:37:22;21.85;;;12.15;;
49536;SDS011;74893;30.696;104.058;2024-03-08T04:39:49;23.75;;;11.90;;
49536;SDS011;74893;30.696;104.058;2024-03-08T04:42:16;23.27;;;12.40;;
49536;SDS011;74893;30.696;104.058;2024-03-08T04:44:43;23.55;;;11.45;;
49536;SDS011;74893;30.696;104.058;2024-03-08T04:47:10;23.55;;;11.15;;
49536;SDS011;74893;30.696;104.058;2024-03-08T04:49:37;24.48;;;12.05;;
49536;SDS011;74893;30.696;104.058;2024-03-08T04:52:04;24.20;;;11.50;;
49536;SDS011;74893;30.696;104.058;2024-03-08T04:54:32;21.38;;;12.05;;
49536;SDS011;74893;30.696;104.058;2024-03-08T04:56:59;18.80;;;11.48;;
49536;SDS011;74893;30.696;104.058;2024-03-08T04:59:26;20.98;;;11.85;;
49536;SDS011;74893;30.696;104.058;2024-03-08T05:01:53;21.80;;;11.50;;
49536;SDS011;74893;30.696;104.058;2024-03-08T05:04:21;21.48;;;11.48;;
49536;SDS011;74893;30.696;104.058;2024-03-08T05:06:48;21.38;;;11.60;;
49536;SDS011;74893;30.696;104.058;2024-03-08T05:09:15;23.48;;;11.00;;
49536;SDS011;74893;30.696;104.058;2024-03-08T05:11:43;23.67;;;12.25;;
49536;SDS011;74893;30.696;104.058;2024-03-08T05:14:10;19.25;;;11.60;;
49536;SDS011;74893;30.696;104.058;2024-03-08T05:16:42;18.95;;;11.27;;
49536;SDS011;74893;30.696;104.058;2024-03-08T05:19:16;22.85;;;11.98;;
49536;SDS011;74893;30.696;104.058;2024-03-08T05:21:49;21.25;;;11.60;;
49536;SDS011;74893;30.696;104.058;2024-03-08T05:24:17;20.00;;;11.68;;
49536;SDS011;74893;30.696;104.058;2024-03-08T05:26:44;23.63;;;12.48;;
49536;SDS011;74893;30.696;104.058;2024-03-08T05:29:11;22.40;;;13.10;;
49536;SDS011;74893;30.696;104.058;2024-03-08T05:31:49;22.50;;;12.13;;
49536;SDS011;74893;30.696;104.058;2024-03-08T05:34:18;21.30;;;12.52;;
49536;SDS011;74893;30.696;104.058;2024-03-08T05:36:48;25.50;;;12.68;;
49536;SDS011;74893;30.696;104.058;2024-03-08T05:39:16;26.10;;;13.00;;
49536;SDS011;74893;30.696;104.058;2024-03-08T05:41:44;22.17;;;12.27;;
49536;SDS011;74893;30.696;104.058;2024-03-08T05:44:11;28.65;;;12.50;;
49536;SDS011;74893;30.696;104.058;2024-03-08T05:46:38;21.95;;;12.05;;
49536;SDS011;74893;30.696;104.058;2024-03-08T05:49:06;23.80;;;12.57;;
49536;SDS011;74893;30.696;104.058;2024-03-08T05:51:36;23.65;;;12.77;;
49536;SDS011;74893;30.696;104.058;2024-03-08T05:54:05;23.70;;;12.65;;
49536;SDS011;74893;30.696;104.058;2024-03-08T05:56:36;25.67;;;13.63;;
49536;SDS011;74893;30.696;104.058;2024-03-08T05:59:03;22.65;;;12.20;;
49536;SDS011;74893;30.696;104.058;2024-03-08T06:01:30;23.65;;;12.77;;
49536;SDS011;74893;30.696;104.058;2024-03-08T06:03:57;24.95;;;11.73;;
49536;SDS011;74893;30.696;104.058;2024-03-08T06:06:24;22.10;;;12.85;;
49536;SDS011;74893;30.696;104.058;2024-03-08T06:08:51;24.02;;;13.20;;
49536;SDS011;74893;30.696;104.058;2024-03-08T06:11:19;26.13;;;14.25;;
49536;SDS011;74893;30.696;104.058;2024-03-08T06:13:46;26.30;;;13.07;;
49536;SDS011;74893;30.696;104.058;2024-03-08T06:16:15;29.50;;;14.20;;
49536;SDS011;74893;30.696;104.058;2024-03-08T06:18:42;23.00;;;12.82;;
49536;SDS011;74893;30.696;104.058;2024-03-08T06:21:09;30.10;;;13.93;;
49536;SDS011;74893;30.696;104.058;2024-03-08T06:23:37;27.75;;;14.77;;
49536;SDS011;74893;30.696;104.058;2024-03-08T06:26:04;27.58;;;14.18;;
49536;SDS011;74893;30.696;104.058;2024-03-08T06:28:31;23.33;;;13.48;;
49536;SDS011;74893;30.696;104.058;2024-03-08T06:30:58;25.85;;;14.60;;
49536;SDS011;74893;30.696;104.058;2024-03-08T06:33:25;28.58;;;13.57;;
49536;SDS011;74893;30.696;104.058;2024-03-08T06:35:53;25.25;;;13.68;;
49536;SDS011;74893;30.696;104.058;2024-03-08T06:38:23;25.77;;;13.85;;
49536;SDS011;74893;30.696;104.058;2024-03-08T06:40:50;28.15;;;14.20;;
49536;SDS011;74893;30.696;104.058;2024-03-08T06:43:18;27.77;;;14.85;;
49536;SDS011;74893;30.696;104.058;2024-03-08T06:45:45;32.40;;;14.93;;
49536;SDS011;74893;30.696;104.058;2024-03-08T06:48:14;27.42;;;14.57;;
49536;SDS011;74893;30.696;104.058;2024-03-08T06:50:45;29.15;;;15.88;;
49536;SDS011;74893;30.696;104.058;2024-03-08T06:55:39;29.35;;;15.18;;
49536;SDS011;74893;30.696;104.058;2024-03-08T06:58:06;34.33;;;15.57;;
49536;SDS011;74893;30.696;104.058;2024-03-08T07:00:33;31.40;;;16.00;;
49536;SDS011;74893;30.696;104.058;2024-03-08T07:03:01;31.00;;;16.25;;
49536;SDS011;74893;30.696;104.058;2024-03-08T07:05:31;29.75;;;14.95;;
49536;SDS011;74893;30.696;104.058;2024-03-08T07:08:01;29.45;;;16.27;;
49536;SDS011;74893;30.696;104.058;2024-03-08T07:10:28;34.30;;;16.92;;
49536;SDS011;74893;30.696;104.058;2024-03-08T07:12:55;32.58;;;16.35;;
49536;SDS011;74893;30.696;104.058;2024-03-08T07:15:22;30.65;;;17.05;;
49536;SDS011;74893;30.696;104.058;2024-03-08T07:17:49;29.25;;;16.65;;
49536;SDS011;74893;30.696;104.058;2024-03-08T07:20:18;33.38;;;17.00;;
49536;SDS011;74893;30.696;104.058;2024-03-08T07:22:45;36.50;;;17.25;;
49536;SDS011;74893;30.696;104.058;2024-03-08T07:25:18;32.53;;;16.60;;
49536;SDS011;74893;30.696;104.058;2024-03-08T07:27:47;33.75;;;17.50;;
49536;SDS011;74893;30.696;104.058;2024-03-08T07:30:17;33.75;;;17.98;;
49536;SDS011;74893;30.696;104.058;2024-03-08T07:33:14;38.58;;;18.08;;
49536;SDS011;74893;30.696;104.058;2024-03-08T07:35:41;32.95;;;18.02;;
49536;SDS011;74893;30.696;104.058;2024-03-08T07:40:39;34.47;;;16.80;;
49536;SDS011;74893;30.696;104.058;2024-03-08T07:43:06;29.98;;;15.65;;
49536;SDS011;74893;30.696;104.058;2024-03-08T07:45:34;27.75;;;16.20;;
49536;SDS011;74893;30.696;104.058;2024-03-08T07:48:01;31.17;;;16.65;;
49536;SDS011;74893;30.696;104.058;2024-03-08T07:50:28;31.58;;;17.35;;
49536;SDS011;74893;30.696;104.058;2024-03-08T07:52:55;33.38;;;16.70;;
49536;SDS011;74893;30.696;104.058;2024-03-08T07:55:23;33.15;;;17.23;;
49536;SDS011;74893;30.696;104.058;2024-03-08T07:57:53;33.60;;;16.23;;
49536;SDS011;74893;30.696;104.058;2024-03-08T08:00:20;32.30;;;18.20;;
49536;SDS011;74893;30.696;104.058;2024-03-08T08:02:47;33.60;;;18.00;;
49536;SDS011;74893;30.696;104.058;2024-03-08T08:05:15;29.83;;;16.80;;
49536;SDS011;74893;30.696;104.058;2024-03-08T08:10:41;31.90;;;16.65;;
49536;SDS011;74893;30.696;104.058;2024-03-08T08:13:08;33.33;;;17.08;;
49536;SDS011;74893;30.696;104.058;2024-03-08T08:15:35;28.77;;;16.33;;
49536;SDS011;74893;30.696;104.058;2024-03-08T08:18:01;30.88;;;17.70;;
49536;SDS011;74893;30.696;104.058;2024-03-08T08:20:31;30.13;;;17.10;;
49536;SDS011;74893;30.696;104.058;2024-03-08T08:22:57;27.55;;;16.05;;
49536;SDS011;74893;30.696;104.058;2024-03-08T08:25:24;29.88;;;16.70;;
49536;SDS011;74893;30.696;104.058;2024-03-08T08:27:51;34.45;;;16.98;;
49536;SDS011;74893;30.696;104.058;2024-03-08T08:30:19;35.17;;;17.17;;
49536;SDS011;74893;30.696;104.058;2024-03-08T08:32:49;33.17;;;16.73;;
49536;SDS011;74893;30.696;104.058;2024-03-08T08:35:16;28.95;;;16.38;;
49536;SDS011;74893;30.696;104.058;2024-03-08T08:37:45;34.78;;;16.75;;
49536;SDS011;74893;30.696;104.058;2024-03-08T08:40:12;31.65;;;16.50;;
49536;SDS011;74893;30.696;104.058;2024-03-08T08:42:43;29.95;;;15.85;;
49536;SDS011;74893;30.696;104.058;2024-03-08T08:45:11;29.90;;;15.20;;
49536;SDS011;74893;30.696;104.058;2024-03-08T08:47:39;30.13;;;15.80;;
49536;SDS011;74893;30.696;104.058;2024-03-08T08:50:08;29.70;;;15.80;;
49536;SDS011;74893;30.696;104.058;2024-03-08T08:52:37;27.10;;;15.98;;
49536;SDS011;74893;30.696;104.058;2024-03-08T08:55:04;28.35;;;14.93;;
49536;SDS011;74893;30.696;104.058;2024-03-08T08:57:32;29.70;;;14.18;;
49536;SDS011;74893;30.696;104.058;2024-03-08T09:00:01;33.28;;;15.88;;
49536;SDS011;74893;30.696;104.058;2024-03-08T09:02:35;30.73;;;15.43;;
49536;SDS011;74893;30.696;104.058;2024-03-08T09:05:04;28.48;;;16.17;;
49536;SDS011;74893;30.696;104.058;2024-03-08T09:07:36;29.20;;;15.27;;
49536;SDS011;74893;30.696;104.058;2024-03-08T09:10:03;28.27;;;15.73;;
49536;SDS011;74893;30.696;104.058;2024-03-08T09:12:30;30.08;;;15.25;;
49536;SDS011;74893;30.696;104.058;2024-03-08T09:14:58;26.80;;;14.68;;
49536;SDS011;74893;30.696;104.058;2024-03-08T09:17:25;28.50;;;14.82;;
49536;SDS011;74893;30.696;104.058;2024-03-08T09:19:52;29.25;;;15.63;;
49536;SDS011;74893;30.696;104.058;2024-03-08T09:22:19;26.30;;;14.68;;
49536;SDS011;74893;30.696;104.058;2024-03-08T09:24:46;28.55;;;14.95;;
49536;SDS011;74893;30.696;104.058;2024-03-08T09:27:13;29.02;;;15.55;;
49536;SDS011;74893;30.696;104.058;2024-03-08T09:29:40;27.10;;;15.13;;
49536;SDS011;74893;30.696;104.058;2024-03-08T09:32:07;27.98;;;15.18;;
49536;SDS011;74893;30.696;104.058;2024-03-08T09:34:34;29.33;;;15.27;;
49536;SDS011;74893;30.696;104.058;2024-03-08T09:37:00;27.42;;;14.98;;
49536;SDS011;74893;30.696;104.058;2024-03-08T09:39:29;28.75;;;14.95;;
49536;SDS011;74893;30.696;104.058;2024-03-08T09:41:56;29.85;;;14.32;;
49536;SDS011;74893;30.696;104.058;2024-03-08T09:44:26;30.73;;;16.02;;
49536;SDS011;74893;30.696;104.058;2024-03-08T09:46:54;29.90;;;15.02;;
49536;SDS011;74893;30.696;104.058;2024-03-08T09:49:21;27.23;;;13.98;;
49536;SDS011;74893;30.696;104.058;2024-03-08T09:51:50;29.50;;;15.38;;
49536;SDS011;74893;30.696;104.058;2024-03-08T09:54:17;26.88;;;14.77;;
49536;SDS011;74893;30.696;104.058;2024-03-08T09:56:46;33.00;;;15.07;;
49536;SDS011;74893;30.696;104.058;2024-03-08T09:59:13;26.95;;;14.43;;
49536;SDS011;74893;30.696;104.058;2024-03-08T10:01:51;27.50;;;14.40;;
49536;SDS011;74893;30.696;104.058;2024-03-08T10:04:18;27.25;;;14.25;;
49536;SDS011;74893;30.696;104.058;2024-03-08T10:06:46;27.17;;;14.10;;
49536;SDS011;74893;30.696;104.058;2024-03-08T10:09:14;25.83;;;14.93;;
49536;SDS011;74893;30.696;104.058;2024-03-08T10:11:42;25.77;;;14.75;;
49536;SDS011;74893;30.696;104.058;2024-03-08T10:14:09;26.38;;;13.85;;
49536;SDS011;74893;30.696;104.058;2024-03-08T10:16:36;30.20;;;14.02;;
49536;SDS011;74893;30.696;104.058;2024-03-08T10:19:05;28.00;;;14.20;;
49536;SDS011;74893;30.696;104.058;2024-03-08T10:21:32;24.08;;;14.18;;
49536;SDS011;74893;30.696;104.058;2024-03-08T10:23:59;27.08;;;14.15;;
49536;SDS011;74893;30.696;104.058;2024-03-08T10:26:27;24.67;;;13.52;;
49536;SDS011;74893;30.696;104.058;2024-03-08T10:28:53;26.75;;;13.45;;
49536;SDS011;74893;30.696;104.058;2024-03-08T10:31:20;24.77;;;14.30;;
49536;SDS011;74893;30.696;104.058;2024-03-08T10:33:47;25.40;;;14.43;;
49536;SDS011;74893;30.696;104.058;2024-03-08T10:36:14;21.75;;;13.15;;
49536;SDS011;74893;30.696;104.058;2024-03-08T10:38:42;25.63;;;13.63;;
49536;SDS011;74893;30.696;104.058;2024-03-08T10:41:12;25.58;;;14.45;;
49536;SDS011;74893;30.696;104.058;2024-03-08T10:43:43;25.45;;;13.13;;
49536;SDS011;74893;30.696;104.058;2024-03-08T10:48:53;20.65;;;12.50;;
49536;SDS011;74893;30.696;104.058;2024-03-08T10:51:26;24.65;;;13.57;;
49536;SDS011;74893;30.696;104.058;2024-03-08T10:53:54;25.83;;;13.65;;
49536;SDS011;74893;30.696;104.058;2024-03-08T10:56:21;24.80;;;13.85;;
49536;SDS011;74893;30.696;104.058;2024-03-08T10:58:53;24.33;;;13.73;;
49536;SDS011;74893;30.696;104.058;2024-03-08T11:01:21;24.42;;;13.93;;
49536;SDS011;74893;30.696;104.058;2024-03-08T11:03:49;30.58;;;13.32;;
49536;SDS011;74893;30.696;104.058;2024-03-08T11:08:57;26.98;;;14.50;;
49536;SDS011;74893;30.696;104.058;2024-03-08T11:14:00;23.92;;;13.27;;
49536;SDS011;74893;30.696;104.058;2024-03-08T11:18:56;24.73;;;13.23;;
49536;SDS011;74893;30.696;104.058;2024-03-08T11:21:31;27.55;;;13.10;;
49536;SDS011;74893;30.696;104.058;2024-03-08T11:24:11;23.45;;;13.32;;
49536;SDS011;74893;30.696;104.058;2024-03-08T11:26:42;26.45;;;13.82;;
49536;SDS011;74893;30.696;104.058;2024-03-08T11:32:30;25.63;;;13.57;;
49536;SDS011;74893;30.696;104.058;2024-03-08T11:34:53;21.88;;;12.30;;
49536;SDS011;74893;30.696;104.058;2024-03-08T11:37:20;26.85;;;15.02;;
49536;SDS011;74893;30.696;104.058;2024-03-08T11:39:48;25.48;;;13.77;;
49536;SDS011;74893;30.696;104.058;2024-03-08T11:42:24;27.67;;;14.93;;
49536;SDS011;74893;30.696;104.058;2024-03-08T11:44:54;23.50;;;13.35;;
49536;SDS011;74893;30.696;104.058;2024-03-08T11:47:21;25.88;;;14.35;;
49536;SDS011;74893;30.696;104.058;2024-03-08T11:49:48;24.02;;;13.52;;
49536;SDS011;74893;30.696;104.058;2024-03-08T11:52:15;22.02;;;13.52;;
49536;SDS011;74893;30.696;104.058;2024-03-08T11:54:47;21.95;;;13.07;;
49536;SDS011;74893;30.696;104.058;2024-03-08T11:57:20;25.15;;;12.88;;
49536;SDS011;74893;30.696;104.058;2024-03-08T11:59:52;24.33;;;14.32;;
49536;SDS011;74893;30.696;104.058;2024-03-08T12:02:20;23.60;;;13.88;;
49536;SDS011;74893;30.696;104.058;2024-03-08T12:04:47;24.17;;;13.75;;
49536;SDS011;74893;30.696;104.058;2024-03-08T12:07:21;27.48;;;14.18;;
49536;SDS011;74893;30.696;104.058;2024-03-08T12:12:48;25.35;;;14.93;;
49536;SDS011;74893;30.696;104.058;2024-03-08T12:15:17;27.13;;;14.90;;
49536;SDS011;74893;30.696;104.058;2024-03-08T12:17:45;26.65;;;14.32;;
49536;SDS011;74893;30.696;104.058;2024-03-08T12:20:18;27.63;;;14.63;;
49536;SDS011;74893;30.696;104.058;2024-03-08T12:22:53;29.25;;;14.88;;
49536;SDS011;74893;30.696;104.058;2024-03-08T12:25:22;28.98;;;15.38;;
49536;SDS011;74893;30.696;104.058;2024-03-08T12:30:25;26.83;;;15.77;;
49536;SDS011;74893;30.696;104.058;2024-03-08T12:32:55;27.35;;;15.57;;
49536;SDS011;74893;30.696;104.058;2024-03-08T12:35:23;27.73;;;15.25;;
49536;SDS011;74893;30.696;104.058;2024-03-08T12:37:55;27.17;;;16.33;;
49536;SDS011;74893;30.696;104.058;2024-03-08T12:40:29;27.70;;;16.20;;
49536;SDS011;74893;30.696;104.058;2024-03-08T12:42:57;28.92;;;16.75;;
49536;SDS011;74893;30.696;104.058;2024-03-08T12:45:25;28.95;;;15.95;;
49536;SDS011;74893;30.696;104.058;2024-03-08T12:47:55;28.88;;;16.65;;
49536;SDS011;74893;30.696;104.058;2024-03-08T12:50:22;32.38;;;16.38;;
49536;SDS011;74893;30.696;104.058;2024-03-08T12:52:52;35.22;;;17.17;;
49536;SDS011;74893;30.696;104.058;2024-03-08T12:55:19;30.00;;;16.27;;
49536;SDS011;74893;30.696;104.058;2024-03-08T12:57:46;29.50;;;16.85;;
49536;SDS011;74893;30.696;104.058;2024-03-08T13:00:14;30.27;;;16.15;;
49536;SDS011;74893;30.696;104.058;2024-03-08T13:02:49;32.53;;;17.10;;
49536;SDS011;74893;30.696;104.058;2024-03-08T13:05:17;33.40;;;17.17;;
49536;SDS011;74893;30.696;104.058;2024-03-08T13:07:44;31.45;;;16.48;;
49536;SDS011;74893;30.696;104.058;2024-03-08T13:10:12;33.83;;;18.23;;
49536;SDS011;74893;30.696;104.058;2024-03-08T13:12:42;31.63;;;17.15;;
49536;SDS011;74893;30.696;104.058;2024-03-08T13:15:10;32.92;;;17.50;;
49536;SDS011;74893;30.696;104.058;2024-03-08T13:17:45;30.58;;;17.20;;
49536;SDS011;74893;30.696;104.058;2024-03-08T13:20:13;32.20;;;17.55;;
49536;SDS011;74893;30.696;104.058;2024-03-08T13:22:48;34.83;;;17.42;;
49536;SDS011;74893;30.696;104.058;2024-03-08T13:25:15;32.72;;;17.52;;
49536;SDS011;74893;30.696;104.058;2024-03-08T13:27:42;32.72;;;18.75;;
49536;SDS011;74893;30.696;104.058;2024-03-08T13:30:09;33.80;;;17.58;;
49536;SDS011;74893;30.696;104.058;2024-03-08T13:32:44;32.30;;;18.00;;
49536;SDS011;74893;30.696;104.058;2024-03-08T13:35:11;30.88;;;17.27;;
49536;SDS011;74893;30.696;104.058;2024-03-08T13:37:39;33.88;;;18.45;;
49536;SDS011;74893;30.696;104.058;2024-03-08T13:40:07;35.13;;;18.90;;
49536;SDS011;74893;30.696;104.058;2024-03-08T13:42:42;33.28;;;18.55;;
49536;SDS011;74893;30.696;104.058;2024-03-08T13:45:09;32.80;;;18.52;;
49536;SDS011;74893;30.696;104.058;2024-03-08T13:47:40;34.42;;;18.63;;
49536;SDS011;74893;30.696;104.058;2024-03-08T13:50:07;33.53;;;18.02;;
49536;SDS011;74893;30.696;104.058;2024-03-08T13:52:38;35.20;;;17.83;;
49536;SDS011;74893;30.696;104.058;2024-03-08T13:55:06;32.80;;;19.13;;
49536;SDS011;74893;30.696;104.058;2024-03-08T13:57:33;28.27;;;17.70;;
49536;SDS011;74893;30.696;104.058;2024-03-08T14:00:00;34.03;;;18.23;;
49536;SDS011;74893;30.696;104.058;2024-03-08T14:02:27;31.88;;;17.65;;
49536;SDS011;74893;30.696;104.058;2024-03-08T14:04:56;33.25;;;18.40;;
49536;SDS011;74893;30.696;104.058;2024-03-08T14:07:23;36.63;;;18.17;;
49536;SDS011;74893;30.696;104.058;2024-03-08T14:09:50;33.45;;;18.02;;
49536;SDS011;74893;30.696;104.058;2024-03-08T14:12:18;34.83;;;18.67;;
49536;SDS011;74893;30.696;104.058;2024-03-08T14:14:46;31.73;;;17.52;;
49536;SDS011;74893;30.696;104.058;2024-03-08T14:17:13;35.65;;;19.20;;
49536;SDS011;74893;30.696;104.058;2024-03-08T14:19:43;36.05;;;19.50;;
49536;SDS011;74893;30.696;104.058;2024-03-08T14:22:13;30.88;;;17.77;;
49536;SDS011;74893;30.696;104.058;2024-03-08T14:25:00;35.55;;;19.38;;
49536;SDS011;74893;30.696;104.058;2024-03-08T14:27:28;33.38;;;18.85;;
49536;SDS011;74893;30.696;104.058;2024-03-08T14:29:56;32.78;;;18.20;;